Time;durP1;ratioP1;P1;durP2;ratioP2;P2;SDS_P1;SDS_P2;PMS_P1;PMS_P2;Temp;Humidity;BMP_temperature;BMP_pressure;BME280_temperature;BME280_humidity;BME280_pressure;Samples;Min_cycle;Max_cycle;Signal;HPM_P1;HPM_P2
2023/06/14 00:02:14;;;;;;;5.93;2.72;;;;;;;;;;5013795;28;20188;-77
2023/06/14 00:04:41;;;;;;;4.15;3.30;;;;;;;;;;5018712;28;20199;-77
2023/06/14 00:07:09;;;;;;;6.30;2.15;;;;;;;;;;5017057;28;20482;-77
2023/06/14 00:09:35;;;;;;;7.30;2.63;;;;;;;;;;5017391;28;20186;-77
2023/06/14 00:12:00;;;;;;;6.00;2.40;;;;;;;;;;5022775;28;20616;-77
2023/06/14 00:14:25;;;;;;;5.50;2.28;;;;;;;;;;5004394;28;20191;-77
2023/06/14 00:16:52;;;;;;;3.75;2.47;;;;;;;;;;5064784;22;20224;-71
2023/06/14 00:19:19;;;;;;;5.18;2.42;;;;;;;;;;5067208;28;20217;-70
2023/06/14 00:21:45;;;;;;;4.30;2.85;;;;;;;;;;5064373;28;20200;-70
2023/06/14 00:24:10;;;;;;;5.47;2.10;;;;;;;;;;5067880;28;20192;-70
2023/06/14 00:26:35;;;;;;;3.58;2.38;;;;;;;;;;5062999;28;20192;-70
2023/06/14 00:29:01;;;;;;;8.00;2.58;;;;;;;;;;5068948;28;20497;-70
2023/06/14 00:31:26;;;;;;;3.20;2.10;;;;;;;;;;5068823;28;20173;-69
2023/06/14 00:33:51;;;;;;;3.63;2.17;;;;;;;;;;5070160;28;20614;-69
2023/06/14 00:36:16;;;;;;;7.43;2.63;;;;;;;;;;5068845;28;20208;-70
2023/06/14 00:38:41;;;;;;;4.07;2.58;;;;;;;;;;5068048;28;20575;-70
2023/06/14 00:41:07;;;;;;;5.07;2.25;;;;;;;;;;5068797;28;20614;-70
2023/06/14 00:43:32;;;;;;;6.45;2.33;;;;;;;;;;5071773;28;20268;-70
2023/06/14 00:45:57;;;;;;;5.95;2.75;;;;;;;;;;5070985;28;20189;-70
2023/06/14 00:48:23;;;;;;;5.25;3.00;;;;;;;;;;5066557;28;20642;-70
2023/06/14 00:50:50;;;;;;;4.32;2.25;;;;;;;;;;5071557;28;20180;-70
2023/06/14 00:53:17;;;;;;;2.92;2.42;;;;;;;;;;5064544;28;20636;-70
2023/06/14 00:55:42;;;;;;;7.43;2.60;;;;;;;;;;5068637;28;20214;-70
2023/06/14 00:58:08;;;;;;;4.25;2.20;;;;;;;;;;5070439;28;20230;-70
2023/06/14 01:00:33;;;;;;;3.55;2.05;;;;;;;;;;5068315;28;20177;-70
2023/06/14 01:02:58;;;;;;;5.55;2.65;;;;;;;;;;5071399;28;20226;-70
2023/06/14 01:05:24;;;;;;;4.88;2.22;;;;;;;;;;5071250;28;20197;-70
2023/06/14 01:08:09;;;;;;;4.70;2.80;;;;;;;;;;5064014;28;20177;-71
2023/06/14 01:10:42;;;;;;;7.15;2.63;;;;;;;;;;5070535;28;20196;-71
2023/06/14 01:13:12;;;;;;;3.85;2.35;;;;;;;;;;5054510;28;20237;-69
2023/06/14 01:15:38;;;;;;;3.85;2.35;;;;;;;;;;5068403;28;20219;-69
2023/06/14 01:18:04;;;;;;;3.97;2.65;;;;;;;;;;5061865;28;20579;-70
2023/06/14 01:20:30;;;;;;;3.35;2.40;;;;;;;;;;5064950;28;20173;-71
2023/06/14 01:22:56;;;;;;;3.15;2.45;;;;;;;;;;5057744;28;20639;-70
2023/06/14 01:25:22;;;;;;;2.45;2.10;;;;;;;;;;5064119;28;20184;-69
2023/06/14 01:27:49;;;;;;;4.40;2.30;;;;;;;;;;5060418;28;20264;-70
2023/06/14 01:30:15;;;;;;;2.95;2.33;;;;;;;;;;5066322;28;20227;-70
2023/06/14 01:32:40;;;;;;;8.73;3.00;;;;;;;;;;5059373;28;20551;-70
2023/06/14 01:35:05;;;;;;;6.03;2.45;;;;;;;;;;5070257;28;20198;-70
2023/06/14 01:37:31;;;;;;;3.63;2.55;;;;;;;;;;5059145;28;20177;-70
2023/06/14 01:39:56;;;;;;;4.80;2.83;;;;;;;;;;5068669;28;20287;-70
2023/06/14 01:42:22;;;;;;;7.68;2.70;;;;;;;;;;5064603;28;20204;-70
2023/06/14 01:44:48;;;;;;;6.30;2.60;;;;;;;;;;5069322;28;20172;-70
2023/06/14 01:47:14;;;;;;;7.07;2.40;;;;;;;;;;5064009;28;20244;-69
2023/06/14 01:49:40;;;;;;;3.85;2.45;;;;;;;;;;5067025;28;20660;-70
2023/06/14 01:52:05;;;;;;;5.80;2.30;;;;;;;;;;5066848;28;20172;-70
2023/06/14 01:54:31;;;;;;;12.57;3.40;;;;;;;;;;5071169;28;20177;-70
2023/06/14 01:56:56;;;;;;;5.22;2.40;;;;;;;;;;5068617;28;20235;-70
2023/06/14 01:59:21;;;;;;;5.40;2.60;;;;;;;;;;5069257;28;20693;-70
2023/06/14 02:01:47;;;;;;;4.28;2.70;;;;;;;;;;5070860;28;20172;-70
2023/06/14 02:04:12;;;;;;;8.73;2.35;;;;;;;;;;5067318;28;20166;-70
2023/06/14 02:06:37;;;;;;;7.63;2.63;;;;;;;;;;5062373;28;20581;-71
2023/06/14 02:09:02;;;;;;;5.68;2.15;;;;;;;;;;5063562;28;20665;-70
2023/06/14 02:11:28;;;;;;;4.82;2.53;;;;;;;;;;5067071;28;20180;-70
2023/06/14 02:13:54;;;;;;;4.85;2.72;;;;;;;;;;5069261;28;20634;-70
2023/06/14 02:16:20;;;;;;;6.30;2.88;;;;;;;;;;5071155;28;20266;-70
2023/06/14 02:18:45;;;;;;;3.50;2.30;;;;;;;;;;5068741;28;20201;-70
2023/06/14 02:21:10;;;;;;;6.43;2.88;;;;;;;;;;5067787;28;20173;-70
2023/06/14 02:23:35;;;;;;;5.32;2.65;;;;;;;;;;5067870;28;20416;-70
2023/06/14 02:26:02;;;;;;;5.80;2.97;;;;;;;;;;5069900;28;20199;-70
2023/06/14 02:28:27;;;;;;;5.43;2.33;;;;;;;;;;5056912;28;20268;-70
2023/06/14 02:30:53;;;;;;;3.72;2.30;;;;;;;;;;5065955;28;20263;-70
2023/06/14 02:33:18;;;;;;;3.92;2.42;;;;;;;;;;5062711;28;20665;-70
2023/06/14 02:35:43;;;;;;;5.93;2.65;;;;;;;;;;5068652;28;20250;-70
2023/06/14 02:38:08;;;;;;;3.83;2.58;;;;;;;;;;5059460;28;20507;-70
2023/06/14 02:40:33;;;;;;;3.42;1.92;;;;;;;;;;5067551;28;20662;-70
2023/06/14 02:42:59;;;;;;;6.32;2.42;;;;;;;;;;5064669;28;20597;-70
2023/06/14 02:45:25;;;;;;;3.25;2.53;;;;;;;;;;5065196;28;20215;-70
2023/06/14 02:47:51;;;;;;;2.55;2.00;;;;;;;;;;5068575;28;20177;-70
2023/06/14 02:50:16;;;;;;;3.30;2.10;;;;;;;;;;5059514;28;20611;-71
2023/06/14 02:52:44;;;;;;;4.10;2.42;;;;;;;;;;5069402;28;20212;-70
2023/06/14 02:55:09;;;;;;;4.80;2.42;;;;;;;;;;5060016;28;20173;-71
2023/06/14 02:57:35;;;;;;;6.57;2.72;;;;;;;;;;5068397;28;20188;-70
2023/06/14 03:00:00;;;;;;;4.25;2.17;;;;;;;;;;5058592;28;20219;-71
2023/06/14 03:02:25;;;;;;;7.38;2.78;;;;;;;;;;5067915;28;20173;-70
2023/06/14 03:04:50;;;;;;;6.70;2.92;;;;;;;;;;5068693;28;20184;-69
2023/06/14 03:07:19;;;;;;;4.03;2.42;;;;;;;;;;5065407;28;20303;-69
2023/06/14 03:09:44;;;;;;;4.55;2.55;;;;;;;;;;5061495;28;20177;-70
2023/06/14 03:12:11;;;;;;;4.00;2.63;;;;;;;;;;5061341;28;20173;-69
2023/06/14 03:14:36;;;;;;;5.82;2.72;;;;;;;;;;5068396;28;20192;-70
2023/06/14 03:17:05;;;;;;;7.13;2.70;;;;;;;;;;5061783;28;20598;-70
2023/06/14 03:19:30;;;;;;;4.32;2.20;;;;;;;;;;5064349;28;20217;-70
2023/06/14 03:21:57;;;;;;;4.38;2.17;;;;;;;;;;5065634;28;20173;-70
2023/06/14 03:24:23;;;;;;;5.95;2.50;;;;;;;;;;5072067;28;20181;-70
2023/06/14 03:26:48;;;;;;;3.10;2.20;;;;;;;;;;5064953;28;20203;-70
2023/06/14 03:29:14;;;;;;;7.75;2.30;;;;;;;;;;5061121;28;20622;-70
2023/06/14 03:31:55;;;;;;;4.75;2.42;;;;;;;;;;5064357;28;20192;-70
2023/06/14 03:34:21;;;;;;;4.32;1.98;;;;;;;;;;5072074;28;20180;-69
2023/06/14 03:36:46;;;;;;;3.78;2.60;;;;;;;;;;5071056;28;20203;-69
2023/06/14 03:39:11;;;;;;;3.30;2.20;;;;;;;;;;5064345;28;20205;-69
2023/06/14 03:41:36;;;;;;;2.85;2.35;;;;;;;;;;5064141;28;20185;-70
2023/06/14 03:44:01;;;;;;;4.47;2.20;;;;;;;;;;5071571;28;20192;-69
2023/06/14 03:46:26;;;;;;;5.28;2.35;;;;;;;;;;5065179;28;20333;-69
2023/06/14 03:48:52;;;;;;;6.72;2.70;;;;;;;;;;5072503;28;20647;-69
2023/06/14 03:51:18;;;;;;;4.63;2.50;;;;;;;;;;5063755;28;20191;-70
2023/06/14 03:53:43;;;;;;;4.78;2.50;;;;;;;;;;5071243;28;20674;-70
2023/06/14 03:56:09;;;;;;;6.53;2.40;;;;;;;;;;5071867;28;20318;-69
2023/06/14 03:58:34;;;;;;;7.20;2.58;;;;;;;;;;5073223;28;20200;-70
2023/06/14 04:01:00;;;;;;;2.60;2.28;;;;;;;;;;5071365;28;20177;-69
2023/06/14 04:03:29;;;;;;;3.58;2.60;;;;;;;;;;5071606;28;20169;-69
2023/06/14 04:05:56;;;;;;;4.47;2.45;;;;;;;;;;5073357;28;20189;-70
2023/06/14 04:08:22;;;;;;;5.07;2.47;;;;;;;;;;5072868;28;20177;-69
2023/06/14 04:10:47;;;;;;;7.50;2.78;;;;;;;;;;5073086;28;20188;-69
2023/06/14 04:13:13;;;;;;;2.90;2.03;;;;;;;;;;5069427;28;20191;-69
2023/06/14 04:15:41;;;;;;;8.20;2.58;;;;;;;;;;5060323;28;20296;-70
2023/06/14 04:18:07;;;;;;;3.40;2.35;;;;;;;;;;5070370;28;20625;-70
2023/06/14 04:20:33;;;;;;;4.75;2.15;;;;;;;;;;5070035;28;20185;-69
2023/06/14 04:23:12;;;;;;;4.82;2.53;;;;;;;;;;5066425;28;20235;-70
2023/06/14 04:25:37;;;;;;;6.28;2.15;;;;;;;;;;5061934;28;20198;-70
2023/06/14 04:28:03;;;;;;;6.38;2.45;;;;;;;;;;5069290;28;20179;-70
2023/06/14 04:30:31;;;;;;;8.68;2.55;;;;;;;;;;5068047;28;20518;-70
2023/06/14 04:32:56;;;;;;;4.80;2.75;;;;;;;;;;5064405;28;20209;-70
2023/06/14 04:35:23;;;;;;;3.63;2.42;;;;;;;;;;5072485;28;20208;-70
2023/06/14 04:37:48;;;;;;;4.90;2.40;;;;;;;;;;5062052;28;20173;-70
2023/06/14 04:40:14;;;;;;;4.72;2.33;;;;;;;;;;5070631;28;20185;-70
2023/06/14 04:42:40;;;;;;;4.50;2.45;;;;;;;;;;5067808;28;20185;-70
2023/06/14 04:45:06;;;;;;;5.28;2.35;;;;;;;;;;5065480;28;20666;-70
2023/06/14 04:47:32;;;;;;;4.57;2.53;;;;;;;;;;5070351;28;20526;-70
2023/06/14 04:49:57;;;;;;;6.53;2.58;;;;;;;;;;5068306;28;20183;-71
2023/06/14 04:52:22;;;;;;;4.50;2.22;;;;;;;;;;5065747;28;20184;-69
2023/06/14 04:54:48;;;;;;;4.40;2.78;;;;;;;;;;5066750;28;20204;-70
2023/06/14 04:57:16;;;;;;;3.92;2.58;;;;;;;;;;5069680;28;20195;-70
2023/06/14 04:59:43;;;;;;;3.40;1.92;;;;;;;;;;5069915;28;20209;-70
2023/06/14 05:02:09;;;;;;;4.22;2.20;;;;;;;;;;5072357;28;20169;-70
2023/06/14 05:04:34;;;;;;;4.47;2.83;;;;;;;;;;5072030;28;20543;-70
2023/06/14 05:07:00;;;;;;;2.75;2.17;;;;;;;;;;5068907;28;20247;-71
2023/06/14 05:09:26;;;;;;;8.57;2.42;;;;;;;;;;5072306;28;20542;-70
2023/06/14 05:11:51;;;;;;;3.97;2.25;;;;;;;;;;5070880;28;20173;-70
2023/06/14 05:14:17;;;;;;;6.82;2.60;;;;;;;;;;5070388;28;20185;-70
2023/06/14 05:16:42;;;;;;;3.30;2.33;;;;;;;;;;5062118;28;20205;-71
2023/06/14 05:19:08;;;;;;;4.20;2.42;;;;;;;;;;5068084;28;20211;-71
2023/06/14 05:21:37;;;;;;;7.13;2.92;;;;;;;;;;5059154;28;20184;-70
2023/06/14 05:24:02;;;;;;;5.90;2.97;;;;;;;;;;5064409;28;20186;-71
2023/06/14 05:26:30;;;;;;;4.15;2.13;;;;;;;;;;5065607;28;20217;-70
2023/06/14 05:28:56;;;;;;;4.93;2.20;;;;;;;;;;5065710;28;20193;-71
2023/06/14 05:31:22;;;;;;;5.13;2.47;;;;;;;;;;5068153;28;20606;-71
2023/06/14 05:33:48;;;;;;;2.90;2.15;;;;;;;;;;5066356;28;20229;-71
2023/06/14 05:36:13;;;;;;;3.38;2.33;;;;;;;;;;5063742;28;20300;-71
2023/06/14 05:38:38;;;;;;;4.53;2.20;;;;;;;;;;5060279;28;20201;-71
2023/06/14 05:41:03;;;;;;;9.23;2.38;;;;;;;;;;5070068;28;20172;-71
2023/06/14 05:43:29;;;;;;;3.92;2.45;;;;;;;;;;5071828;28;20177;-71
2023/06/14 05:45:54;;;;;;;7.30;2.60;;;;;;;;;;5069626;28;20242;-71
2023/06/14 05:48:19;;;;;;;4.80;2.60;;;;;;;;;;5071003;28;20180;-71
2023/06/14 05:50:44;;;;;;;5.65;2.38;;;;;;;;;;5070052;28;20173;-72
2023/06/14 05:53:10;;;;;;;5.30;2.30;;;;;;;;;;5063746;28;20176;-71
2023/06/14 05:55:35;;;;;;;5.32;2.67;;;;;;;;;;5071201;28;20196;-71
2023/06/14 05:58:01;;;;;;;7.27;2.53;;;;;;;;;;5070646;28;20173;-71
2023/06/14 06:00:26;;;;;;;3.25;2.75;;;;;;;;;;5064480;28;20474;-71
2023/06/14 06:02:51;;;;;;;4.60;2.85;;;;;;;;;;5062435;28;20256;-71
2023/06/14 06:05:17;;;;;;;3.30;2.20;;;;;;;;;;5070760;28;20173;-71
2023/06/14 06:07:45;;;;;;;5.32;2.63;;;;;;;;;;5067975;28;20223;-71
2023/06/14 06:10:10;;;;;;;6.18;3.13;;;;;;;;;;5068278;28;20177;-71
2023/06/14 06:12:36;;;;;;;5.68;2.53;;;;;;;;;;5069726;28;20658;-71
2023/06/14 06:15:01;;;;;;;6.40;2.72;;;;;;;;;;5070046;28;20181;-71
2023/06/14 06:17:26;;;;;;;2.80;2.20;;;;;;;;;;5086510;22;20216;-79
2023/06/14 06:19:52;;;;;;;6.13;2.50;;;;;;;;;;5076119;28;20600;-76
2023/06/14 06:22:17;;;;;;;3.95;2.53;;;;;;;;;;5068069;28;20179;-77
2023/06/14 06:24:42;;;;;;;5.45;2.65;;;;;;;;;;5069996;28;20176;-77
2023/06/14 06:27:08;;;;;;;4.95;2.08;;;;;;;;;;5068969;28;20254;-77
2023/06/14 06:29:33;;;;;;;2.92;2.63;;;;;;;;;;5069997;28;20187;-77
2023/06/14 06:31:58;;;;;;;2.67;2.30;;;;;;;;;;5071127;28;20218;-77
2023/06/14 06:34:23;;;;;;;5.20;2.95;;;;;;;;;;5066768;28;20177;-77
2023/06/14 06:36:49;;;;;;;2.83;2.22;;;;;;;;;;5072330;28;20206;-76
2023/06/14 06:39:15;;;;;;;4.13;2.42;;;;;;;;;;5069466;28;20213;-76
2023/06/14 06:41:40;;;;;;;8.45;3.45;;;;;;;;;;5075150;28;20169;-78
2023/06/14 06:44:06;;;;;;;5.20;2.65;;;;;;;;;;5071029;28;20260;-78
2023/06/14 06:46:32;;;;;;;3.45;2.22;;;;;;;;;;5072101;28;20199;-78
2023/06/14 06:48:57;;;;;;;6.55;2.80;;;;;;;;;;5071564;28;20180;-77
2023/06/14 06:51:22;;;;;;;2.50;2.10;;;;;;;;;;5073418;28;20185;-77
2023/06/14 06:53:51;;;;;;;3.23;2.30;;;;;;;;;;5072355;28;20911;-78
2023/06/14 06:56:17;;;;;;;6.40;2.97;;;;;;;;;;5077739;28;20974;-78
2023/06/14 06:58:42;;;;;;;5.38;2.38;;;;;;;;;;5076122;28;20205;-79
2023/06/14 07:01:09;;;;;;;6.05;2.45;;;;;;;;;;5077102;28;20181;-72
2023/06/14 07:03:34;;;;;;;4.45;2.20;;;;;;;;;;5077026;28;20172;-79
2023/06/14 07:05:59;;;;;;;5.10;2.80;;;;;;;;;;5070392;28;20678;-81
2023/06/14 07:08:24;;;;;;;7.60;2.58;;;;;;;;;;5077423;28;20185;-76
2023/06/14 07:10:49;;;;;;;5.50;2.70;;;;;;;;;;5066270;28;20180;-77
2023/06/14 07:13:15;;;;;;;10.23;2.90;;;;;;;;;;5069681;28;20430;-77
2023/06/14 07:15:40;;;;;;;3.42;2.90;;;;;;;;;;5068050;28;20189;-78
2023/06/14 07:18:06;;;;;;;3.92;2.42;;;;;;;;;;5077999;28;20173;-78
2023/06/14 07:20:32;;;;;;;6.40;2.50;;;;;;;;;;5075938;28;20560;-77
2023/06/14 07:22:58;;;;;;;4.97;2.40;;;;;;;;;;5075381;28;20181;-77
2023/06/14 07:25:23;;;;;;;7.20;2.33;;;;;;;;;;5063533;28;20211;-78
2023/06/14 07:27:48;;;;;;;5.55;2.17;;;;;;;;;;5070302;28;20429;-77
2023/06/14 07:30:13;;;;;;;4.43;2.40;;;;;;;;;;5064753;28;20569;-78
2023/06/14 07:32:39;;;;;;;5.65;2.53;;;;;;;;;;5072275;28;20476;-77
2023/06/14 07:35:04;;;;;;;8.35;2.70;;;;;;;;;;5063577;28;20255;-77
2023/06/14 07:37:30;;;;;;;3.30;2.38;;;;;;;;;;5063408;28;20200;-77
2023/06/14 07:39:55;;;;;;;6.50;3.15;;;;;;;;;;5075780;28;20192;-77
2023/06/14 07:42:21;;;;;;;4.90;2.77;;;;;;;;;;5076221;28;20177;-77
2023/06/14 07:44:46;;;;;;;7.15;2.30;;;;;;;;;;5065087;28;20750;-77
2023/06/14 07:47:11;;;;;;;4.28;2.90;;;;;;;;;;5068971;28;20284;-78
2023/06/14 07:49:37;;;;;;;9.88;2.95;;;;;;;;;;5076677;28;20630;-77
2023/06/14 07:52:02;;;;;;;7.22;2.92;;;;;;;;;;5071840;28;20269;-76
2023/06/14 07:54:28;;;;;;;5.40;2.83;;;;;;;;;;5074303;28;20599;-78
2023/06/14 07:56:53;;;;;;;4.93;3.00;;;;;;;;;;5069946;28;20691;-77
2023/06/14 07:59:18;;;;;;;5.47;2.40;;;;;;;;;;5073453;28;20204;-77
2023/06/14 08:01:46;;;;;;;6.60;2.60;;;;;;;;;;5078611;28;20547;-77
2023/06/14 08:04:14;;;;;;;5.18;2.33;;;;;;;;;;5072053;28;20180;-76
2023/06/14 08:06:40;;;;;;;3.67;2.17;;;;;;;;;;5075399;28;20250;-77
2023/06/14 08:09:05;;;;;;;5.18;2.47;;;;;;;;;;5078965;28;20588;-79
2023/06/14 08:11:31;;;;;;;2.83;2.50;;;;;;;;;;5080360;28;20187;-78
2023/06/14 08:13:56;;;;;;;5.00;2.20;;;;;;;;;;5074484;28;20183;-79
2023/06/14 08:16:21;;;;;;;5.65;2.17;;;;;;;;;;5080000;28;20208;-81
2023/06/14 08:18:46;;;;;;;3.42;2.60;;;;;;;;;;5082569;28;20227;-78
2023/06/14 08:21:13;;;;;;;4.90;1.85;;;;;;;;;;5082063;28;20253;-79
2023/06/14 08:23:38;;;;;;;7.35;2.25;;;;;;;;;;5077163;28;20230;-77
2023/06/14 08:26:04;;;;;;;3.00;2.10;;;;;;;;;;5079537;28;20275;-78
2023/06/14 08:28:29;;;;;;;5.53;2.20;;;;;;;;;;5079648;28;20412;-78
2023/06/14 08:30:55;;;;;;;3.20;2.47;;;;;;;;;;5079713;28;20227;-78
2023/06/14 08:33:20;;;;;;;4.72;2.42;;;;;;;;;;5074394;28;20173;-77
2023/06/14 08:35:45;;;;;;;3.00;2.03;;;;;;;;;;5074403;28;20189;-77
2023/06/14 08:38:11;;;;;;;2.90;2.53;;;;;;;;;;5068262;28;20459;-77
2023/06/14 08:40:38;;;;;;;4.63;2.30;;;;;;;;;;5077267;28;20252;-77
2023/06/14 08:43:03;;;;;;;3.58;1.90;;;;;;;;;;5084416;28;20177;-78
2023/06/14 08:45:28;;;;;;;5.15;1.95;;;;;;;;;;5071176;28;20185;-77
2023/06/14 08:47:57;;;;;;;2.90;1.90;;;;;;;;;;5079609;28;20199;-78
2023/06/14 08:50:23;;;;;;;3.85;2.03;;;;;;;;;;5080315;28;20180;-78
2023/06/14 08:52:52;;;;;;;5.82;1.77;;;;;;;;;;5077684;28;20276;-78
2023/06/14 08:55:18;;;;;;;3.30;1.63;;;;;;;;;;5073711;28;20177;-78
2023/06/14 08:57:44;;;;;;;2.15;1.55;;;;;;;;;;5079106;28;20192;-78
2023/06/14 09:00:12;;;;;;;6.45;1.65;;;;;;;;;;5081186;28;20196;-77
2023/06/14 09:02:43;;;;;;;4.60;2.03;;;;;;;;;;5072632;28;20173;-76
2023/06/14 09:05:08;;;;;;;2.90;1.50;;;;;;;;;;5068593;28;20173;-76
2023/06/14 09:07:34;;;;;;;2.08;1.75;;;;;;;;;;5075649;28;20276;-77
2023/06/14 09:10:10;;;;;;;5.13;1.80;;;;;;;;;;5077212;28;20597;-76
2023/06/14 09:12:36;;;;;;;1.55;1.45;;;;;;;;;;5071611;28;20507;-77
2023/06/14 09:15:05;;;;;;;1.50;1.40;;;;;;;;;;5070609;28;20211;-76
2023/06/14 09:17:32;;;;;;;3.45;1.50;;;;;;;;;;5069331;28;20319;-77
2023/06/14 09:19:58;;;;;;;2.00;1.80;;;;;;;;;;5076554;28;20196;-76
2023/06/14 09:22:23;;;;;;;3.22;1.55;;;;;;;;;;5072981;28;20638;-77
2023/06/14 09:24:48;;;;;;;4.47;1.47;;;;;;;;;;5074556;28;20230;-78
2023/06/14 09:27:16;;;;;;;2.13;1.43;;;;;;;;;;5075228;28;20434;-77
2023/06/14 09:29:41;;;;;;;3.08;1.27;;;;;;;;;;5077281;28;20417;-77
2023/06/14 09:32:07;;;;;;;1.80;1.20;;;;;;;;;;5073274;28;20594;-77
2023/06/14 09:34:32;;;;;;;3.00;1.50;;;;;;;;;;5069239;28;20457;-78
2023/06/14 09:36:58;;;;;;;2.40;1.30;;;;;;;;;;5074025;28;20275;-78
2023/06/14 09:39:24;;;;;;;3.00;1.63;;;;;;;;;;5073735;28;20549;-78
2023/06/14 09:41:50;;;;;;;2.00;1.33;;;;;;;;;;5073365;28;20438;-78
2023/06/14 09:44:16;;;;;;;1.30;1.20;;;;;;;;;;5068120;28;20212;-77
2023/06/14 09:46:42;;;;;;;7.25;1.25;;;;;;;;;;5062934;28;20192;-77
2023/06/14 09:49:08;;;;;;;2.07;1.40;;;;;;;;;;5071365;28;20180;-77
2023/06/14 09:51:34;;;;;;;1.30;1.20;;;;;;;;;;5071727;28;20260;-79
2023/06/14 09:54:06;;;;;;;5.20;1.30;;;;;;;;;;5072605;28;20192;-78
2023/06/14 09:56:41;;;;;;;1.88;1.20;;;;;;;;;;5069801;28;20193;-78
2023/06/14 09:59:08;;;;;;;3.53;1.30;;;;;;;;;;5079160;28;20202;-79
2023/06/14 10:01:33;;;;;;;3.75;1.55;;;;;;;;;;5071818;28;20586;-79
2023/06/14 10:04:02;;;;;;;5.57;1.60;;;;;;;;;;5075857;28;20173;-79
2023/06/14 10:06:28;;;;;;;2.95;1.08;;;;;;;;;;5066277;28;20253;-79
2023/06/14 10:08:55;;;;;;;1.85;1.20;;;;;;;;;;5073072;28;20184;-79
2023/06/14 10:11:20;;;;;;;1.48;1.00;;;;;;;;;;5077506;28;20195;-76
2023/06/14 10:13:46;;;;;;;3.30;1.70;;;;;;;;;;5066990;28;20647;-77
2023/06/14 10:16:24;;;;;;;4.35;1.02;;;;;;;;;;5065556;28;20250;-79
2023/06/14 10:19:04;;;;;;;1.95;1.40;;;;;;;;;;5068699;28;20189;-78
2023/06/14 10:21:48;;;;;;;2.35;1.48;;;;;;;;;;5074253;28;20176;-77
2023/06/14 10:24:15;;;;;;;3.45;1.00;;;;;;;;;;5064531;28;20251;-77
2023/06/14 10:26:50;;;;;;;1.00;0.90;;;;;;;;;;5065923;28;20208;-78
2023/06/14 10:29:16;;;;;;;6.88;1.58;;;;;;;;;;5075609;28;20184;-79
2023/06/14 10:31:42;;;;;;;1.60;1.30;;;;;;;;;;5074793;28;20272;-78
2023/06/14 10:34:07;;;;;;;1.45;1.27;;;;;;;;;;5074075;28;20418;-77
2023/06/14 10:36:34;;;;;;;2.50;1.23;;;;;;;;;;5065564;28;20207;-78
2023/06/14 10:39:00;;;;;;;2.50;1.10;;;;;;;;;;5074434;28;20196;-78
2023/06/14 10:41:27;;;;;;;1.10;0.75;;;;;;;;;;5075035;28;20173;-78
2023/06/14 10:43:52;;;;;;;2.33;1.20;;;;;;;;;;5077919;28;20168;-80
2023/06/14 10:46:18;;;;;;;2.85;1.38;;;;;;;;;;5070335;28;20196;-79
2023/06/14 10:48:46;;;;;;;1.63;1.33;;;;;;;;;;5079154;28;20177;-78
2023/06/14 10:51:21;;;;;;;1.45;1.00;;;;;;;;;;5077839;28;20168;-77
2023/06/14 10:53:47;;;;;;;3.65;1.23;;;;;;;;;;5071179;28;20257;-77
2023/06/14 10:56:32;;;;;;;2.65;1.00;;;;;;;;;;5070335;28;20279;-78
2023/06/14 10:58:58;;;;;;;2.85;1.30;;;;;;;;;;5075956;28;20212;-77
2023/06/14 11:01:31;;;;;;;3.25;1.65;;;;;;;;;;5073282;28;20681;-78
2023/06/14 11:04:01;;;;;;;2.67;1.20;;;;;;;;;;5075706;28;20244;-78
2023/06/14 11:06:29;;;;;;;1.95;0.93;;;;;;;;;;5065707;28;20201;-77
2023/06/14 11:09:00;;;;;;;2.80;1.00;;;;;;;;;;5063071;28;20209;-78
2023/06/14 11:11:30;;;;;;;1.52;1.00;;;;;;;;;;5072339;28;20234;-78
2023/06/14 11:13:55;;;;;;;1.08;0.90;;;;;;;;;;5070220;28;20174;-78
2023/06/14 11:16:25;;;;;;;2.10;1.00;;;;;;;;;;5070221;28;20706;-79
2023/06/14 11:18:50;;;;;;;2.53;0.80;;;;;;;;;;5080219;28;20193;-79
2023/06/14 11:21:19;;;;;;;3.00;1.20;;;;;;;;;;5081094;28;20242;-80
2023/06/14 11:23:55;;;;;;;3.95;1.40;;;;;;;;;;5081225;28;20430;-78
2023/06/14 11:26:27;;;;;;;1.10;1.00;;;;;;;;;;5069615;28;20202;-78
2023/06/14 11:28:55;;;;;;;2.67;1.02;;;;;;;;;;5077527;28;20198;-79
2023/06/14 11:31:20;;;;;;;1.80;0.77;;;;;;;;;;5079910;28;20185;-79
2023/06/14 11:33:49;;;;;;;2.80;1.00;;;;;;;;;;5077845;28;20189;-79
2023/06/14 11:36:15;;;;;;;10.30;1.45;;;;;;;;;;5075683;28;21023;-77
2023/06/14 11:38:40;;;;;;;1.42;0.93;;;;;;;;;;5085543;28;20197;-78
2023/06/14 11:41:05;;;;;;;0.93;0.68;;;;;;;;;;5089518;28;20175;-78
2023/06/14 11:43:32;;;;;;;2.10;1.38;;;;;;;;;;5076571;28;20184;-78
2023/06/14 11:45:59;;;;;;;3.28;1.10;;;;;;;;;;5089314;28;20675;-79
2023/06/14 11:48:35;;;;;;;3.63;1.20;;;;;;;;;;5084886;28;20662;-78
2023/06/14 11:51:00;;;;;;;2.55;0.93;;;;;;;;;;5084684;28;20184;-78
2023/06/14 11:53:26;;;;;;;5.93;1.25;;;;;;;;;;5082885;28;20189;-78
2023/06/14 11:55:51;;;;;;;1.40;1.10;;;;;;;;;;5082196;28;20311;-78
2023/06/14 11:58:17;;;;;;;3.30;1.38;;;;;;;;;;5083577;28;20684;-78
2023/06/14 12:00:43;;;;;;;2.90;0.95;;;;;;;;;;5082132;28;20181;-78
2023/06/14 12:03:08;;;;;;;1.58;0.93;;;;;;;;;;5070598;28;20205;-79
2023/06/14 12:05:34;;;;;;;5.22;1.38;;;;;;;;;;5075883;28;20268;-78
2023/06/14 12:08:00;;;;;;;1.83;1.50;;;;;;;;;;5075985;28;20169;-78
2023/06/14 12:10:25;;;;;;;3.38;1.10;;;;;;;;;;5081295;28;20181;-78
2023/06/14 12:12:50;;;;;;;1.48;1.27;;;;;;;;;;5079817;28;20264;-78
2023/06/14 12:15:16;;;;;;;2.70;1.20;;;;;;;;;;5080398;28;20185;-80
2023/06/14 12:17:42;;;;;;;2.78;1.13;;;;;;;;;;5072379;22;20284;-70
2023/06/14 12:20:19;;;;;;;2.60;0.88;;;;;;;;;;5052393;28;20217;-71
2023/06/14 12:22:50;;;;;;;1.40;1.10;;;;;;;;;;5042249;28;20181;-71
2023/06/14 12:25:36;;;;;;;4.63;1.50;;;;;;;;;;5053449;28;20181;-71
2023/06/14 12:28:06;;;;;;;1.60;1.40;;;;;;;;;;5044314;28;20204;-71
2023/06/14 12:30:31;;;;;;;2.00;1.35;;;;;;;;;;5051338;28;20180;-71
2023/06/14 12:32:56;;;;;;;3.60;1.65;;;;;;;;;;5053223;28;20551;-71
2023/06/14 12:35:21;;;;;;;3.47;1.20;;;;;;;;;;5047864;28;20184;-72
2023/06/14 12:37:47;;;;;;;2.15;1.10;;;;;;;;;;5042391;28;20181;-72
2023/06/14 12:40:12;;;;;;;1.83;1.30;;;;;;;;;;5051244;28;20250;-72
2023/06/14 12:42:38;;;;;;;1.98;1.23;;;;;;;;;;5053035;28;20414;-71
2023/06/14 12:45:03;;;;;;;2.17;1.05;;;;;;;;;;5053046;28;20173;-71
2023/06/14 12:47:29;;;;;;;3.35;1.40;;;;;;;;;;5050550;28;20194;-71
2023/06/14 12:49:54;;;;;;;2.17;1.25;;;;;;;;;;5046042;28;20277;-71
2023/06/14 12:52:19;;;;;;;1.30;0.90;;;;;;;;;;5045411;28;20182;-71
2023/06/14 12:54:44;;;;;;;2.40;1.48;;;;;;;;;;5053078;28;20407;-71
2023/06/14 12:57:10;;;;;;;2.13;1.02;;;;;;;;;;5050732;28;20272;-71
2023/06/14 12:59:35;;;;;;;1.23;1.13;;;;;;;;;;5045205;28;20209;-71
2023/06/14 13:02:17;;;;;;;2.60;1.00;;;;;;;;;;5040673;28;20229;-71
2023/06/14 13:04:42;;;;;;;1.30;1.10;;;;;;;;;;5041251;28;20182;-71
2023/06/14 13:07:08;;;;;;;1.10;1.02;;;;;;;;;;5051403;28;20196;-71
2023/06/14 13:09:33;;;;;;;1.80;1.20;;;;;;;;;;5052993;28;20181;-71
2023/06/14 13:11:59;;;;;;;2.85;1.77;;;;;;;;;;5041245;28;20182;-71
2023/06/14 13:14:24;;;;;;;4.47;1.20;;;;;;;;;;5046399;28;20203;-71
2023/06/14 13:16:49;;;;;;;3.95;1.08;;;;;;;;;;5049990;28;20213;-71
2023/06/14 13:19:15;;;;;;;1.30;1.05;;;;;;;;;;5050895;28;20204;-71
2023/06/14 13:21:40;;;;;;;3.42;1.13;;;;;;;;;;5051680;28;20631;-71
2023/06/14 13:24:05;;;;;;;1.27;1.03;;;;;;;;;;5050337;28;20173;-71
2023/06/14 13:26:30;;;;;;;1.27;1.17;;;;;;;;;;5042877;28;20678;-71
2023/06/14 13:28:56;;;;;;;3.07;1.23;;;;;;;;;;5048790;28;20185;-72
2023/06/14 13:31:21;;;;;;;2.83;1.58;;;;;;;;;;5039415;28;20427;-72
2023/06/14 13:33:46;;;;;;;2.80;1.43;;;;;;;;;;5052263;28;20173;-71
2023/06/14 13:36:11;;;;;;;1.50;0.80;;;;;;;;;;5052088;28;20406;-72
2023/06/14 13:38:36;;;;;;;2.17;0.70;;;;;;;;;;5051147;28;20193;-72
2023/06/14 13:41:02;;;;;;;1.77;0.73;;;;;;;;;;5050549;28;20794;-71
2023/06/14 13:43:27;;;;;;;1.90;0.80;;;;;;;;;;5043587;28;20268;-71
2023/06/14 13:45:53;;;;;;;1.40;1.07;;;;;;;;;;5044969;28;20193;-71
2023/06/14 13:48:19;;;;;;;2.50;1.08;;;;;;;;;;5049402;28;20700;-72
2023/06/14 13:50:45;;;;;;;1.40;0.95;;;;;;;;;;5051032;28;20264;-71
2023/06/14 13:53:10;;;;;;;1.95;1.05;;;;;;;;;;5051798;28;20176;-71
2023/06/14 13:55:36;;;;;;;1.30;1.10;;;;;;;;;;5053204;28;20178;-71
2023/06/14 13:58:01;;;;;;;1.15;0.98;;;;;;;;;;5050080;28;20484;-71
2023/06/14 14:00:26;;;;;;;2.60;2.03;;;;;;;;;;5041430;28;20201;-71
2023/06/14 14:02:52;;;;;;;2.77;1.00;;;;;;;;;;5043305;28;20203;-71
2023/06/14 14:05:17;;;;;;;1.83;0.98;;;;;;;;;;5044019;28;20182;-71
2023/06/14 14:07:42;;;;;;;3.00;1.23;;;;;;;;;;5050505;28;20194;-71
2023/06/14 14:10:08;;;;;;;2.20;1.27;;;;;;;;;;5050272;28;20175;-71
2023/06/14 14:12:33;;;;;;;1.27;0.93;;;;;;;;;;5048539;28;20178;-71
2023/06/14 14:14:59;;;;;;;6.32;1.42;;;;;;;;;;5046309;28;20256;-72
2023/06/14 14:17:24;;;;;;;2.10;1.02;;;;;;;;;;5042897;28;20208;-71
2023/06/14 14:19:49;;;;;;;1.20;1.10;;;;;;;;;;5046282;28;20326;-71
2023/06/14 14:22:15;;;;;;;1.43;1.03;;;;;;;;;;5050189;28;20526;-72
2023/06/14 14:24:40;;;;;;;1.83;0.90;;;;;;;;;;5049075;28;20174;-72
2023/06/14 14:27:06;;;;;;;1.73;1.10;;;;;;;;;;5049256;28;20193;-72
2023/06/14 14:29:31;;;;;;;3.75;1.10;;;;;;;;;;5039509;28;20186;-72
2023/06/14 14:31:56;;;;;;;2.13;1.10;;;;;;;;;;5037928;28;20178;-72
2023/06/14 14:34:22;;;;;;;6.03;1.60;;;;;;;;;;5043870;28;20442;-72
2023/06/14 14:36:48;;;;;;;4.93;1.50;;;;;;;;;;5050648;28;20540;-72
2023/06/14 14:39:13;;;;;;;2.35;1.00;;;;;;;;;;5050311;28;20202;-72